Maple Falls, WA

7:32 PM PST on December 28, 2014 (GMT -0800)
Peaceful Valley | Change Station
CLOSE
Current Station
Personal Weather Station
Location: Maple Falls, WA
Elevation: 470 ft
Nearby Weather Stations

Elev 470 ft 48.94 °N, 122.14 °W | Updated 8 seconds ago

Overcast
Overcast
37.2 °F
Feels Like 37 °F
N
0.0
Wind Variable Wind from SSE
Gusts 0.0 mph

Today
High -- | Low -- °F
--% Chance of Precip.
Yesterday
High -- | Low -- °F
Precip. -- in
8:02 AM 4:18 PM
First Quarter, 54% visible
Pressure 30.19 in
Visibility 10.0 miles
Clouds Overcast 4900 ft
Windchill 37 °F
Dew Point 35 °F
Humidity 92%
Rainfall 0.00 in
Snow Depth Not available.
UV 0 out of 12
Pollen .50 out of 12
Air Quality Not available.
Flu Activity Not available.
METAR KBLI 290253Z 35005KT 10SM OVC049 04/02 A3016 RMK AO2 RAE18 SLP223 P0001 60002 T00390017 58003

More Conditions Fewer Conditions

Pressure 30.19 in
Visibility 10.0 miles
Clouds Overcast 4900 ft
Windchill 37 °F
Dew Point 35 °F
Humidity 92%
Rainfall 0.00 in
Snow Depth Not available.
UV 0 out of 12
Pollen .50 out of 12
Air Quality Not available.
Flu Activity Not available.
METAR KBLI 290253Z 35005KT 10SM OVC049 04/02 A3016 RMK AO2 RAE18 SLP223 P0001 60002 T00390017 58003

More Conditions Fewer Conditions

10-Day Weather Forecast

Almanac

Astronomy

Dec. 28, 2014 Rise Set
Actual Time
Civil Twilight
Nautical Twilight
Astronomical Twilight
Moon
Length of Visible Light
Length of Day
Tomorrow will be .
, % of the Moon is Illuminated

Today's Extremes

State Highs State Lows

Community

WunderPhotos

Upload Photos

1,781,518 photos uploaded!

WunderBlogs® & News

Nearby

Air Quality

  Air Quality AQ Index Pollutant
Not available.

Snow Depth

Station Depth Elevation

Earthquake Activity

City Distance Mag. Time & Date
Minimum magnitude displayed is 2.5.

Coastal Water Temperatures

Place Temperature

Nearby Weather Stations